MHLM/SAP METAR and TAF weather

Enter ICAO airport designator
Station Type Date Time Source
MHLM METAR 2019/05/26 23:00 UTC NOAA

MHLM 262300Z 36011KT 9999 FEW018 FEW030CB 31/23 Q1010 A2983 NOSIG


Station Type Date Time Source
MHLM Decoded METAR 2019/05/26 23:00 UTC NOAA

La Mesa San Pedro Sula , Honduras (MHLM) 15-27N 087-56W 31M
May 26, 2019 - 07:00 PM EDT / 2019.05.26 2300 UTC
Wind: from the N (360 degrees) at 13 MPH (11 KT):0
Visibility: greater than 7 mile(s):0
Sky conditions: mostly clear
Weather: Cumulonimbus clouds observed
Temperature: 87 F (31 C)
Heat index: 93.9 F (34.4 C):1
Dew Point: 73 F (23 C)
Relative Humidity: 62%
Pressure (altimeter): 29.83 in. Hg (1010 hPa)
ob: MHLM 262300Z 36011KT 9999 FEW018 FEW030CB 31/23 Q1010 A2983 NOSIG
cycle: 23

Station Type Date Time Source
MHLM TAF 2019/05/26 18:54 UTC NOAA

TAF MHLM 261645Z 2618/2718 01006KT 9999 SCT028 TX33/2620Z TN23/2712Z
TEMPO 2620/2702 07004KT 8000 VCSH SCT026TCU FEW028CB
BECMG 2702/2704 9999 NSW FEW025
BECMG 2706/2708 00000KT
BECMG 2713/2715 30004KT

Example: see airport list